createdAt,value
2019-05-16T00:01:11.414Z,86.37
2019-05-16T00:03:44.046Z,86.22
2019-05-16T00:06:17.926Z,86.60
2019-05-16T00:08:50.644Z,86.83
2019-05-16T00:11:23.352Z,87.05
2019-05-16T00:13:57.834Z,87.08
2019-05-16T00:16:30.482Z,87.14
2019-05-16T00:19:03.076Z,87.17
2019-05-16T00:21:35.773Z,87.30
2019-05-16T00:24:08.496Z,87.56
2019-05-16T00:26:41.112Z,87.59
2019-05-16T00:29:13.699Z,87.29
2019-05-16T00:31:48.515Z,87.43
2019-05-16T00:34:20.630Z,87.58
2019-05-16T00:36:53.323Z,87.34
2019-05-16T00:39:27.955Z,87.48
2019-05-16T00:42:00.248Z,87.72
2019-05-16T00:44:32.871Z,87.78
2019-05-16T00:47:05.168Z,88.06
2019-05-16T00:49:38.606Z,88.29
2019-05-16T00:52:12.592Z,88.28
2019-05-16T00:54:45.328Z,88.25
2019-05-16T00:57:19.281Z,87.95
2019-05-16T00:59:52.423Z,88.29
2019-05-16T01:02:25.069Z,88.64
2019-05-16T01:04:58.949Z,88.72
2019-05-16T01:07:31.707Z,88.71
2019-05-16T01:10:04.817Z,88.74
2019-05-16T01:12:39.024Z,88.91
2019-05-16T01:15:12.099Z,89.17
2019-05-16T01:17:44.695Z,89.24
2019-05-16T01:20:19.213Z,89.42
2019-05-16T01:22:51.982Z,89.24
2019-05-16T01:25:24.690Z,89.27
2019-05-16T01:27:58.285Z,89.32
2019-05-16T01:30:31.103Z,89.34
2019-05-16T01:33:03.865Z,89.29
2019-05-16T01:35:38.552Z,89.03
2019-05-16T01:38:11.304Z,89.07
2019-05-16T01:40:44.014Z,89.41
2019-05-16T01:43:17.844Z,89.26
2019-05-16T01:45:50.943Z,89.33
2019-05-16T01:48:23.497Z,89.62
2019-05-16T01:50:58.224Z,89.87
2019-05-16T01:53:30.614Z,89.92
2019-05-16T01:56:03.247Z,89.56
2019-05-16T01:58:38.128Z,89.52
2019-05-16T02:01:13.236Z,89.81
2019-05-16T02:03:44.479Z,90.13
2019-05-16T02:06:18.393Z,90.25
2019-05-16T02:08:51.294Z,90.16
2019-05-16T02:11:23.939Z,90.17
2019-05-16T02:13:58.437Z,90.13
2019-05-16T02:16:30.895Z,90.16
2019-05-16T02:19:03.504Z,90.22
2019-05-16T02:21:36.193Z,90.03
2019-05-16T02:24:09.027Z,89.81
2019-05-16T02:26:41.704Z,90.16
2019-05-16T02:29:14.391Z,90.02
2019-05-16T02:31:47.070Z,89.67
2019-05-16T02:34:21.802Z,89.48
2019-05-16T02:37:18.020Z,89.65
2019-05-16T02:39:30.505Z,89.40
2019-05-16T02:42:02.680Z,89.31
2019-05-16T02:44:35.223Z,89.27
2019-05-16T02:47:10.830Z,88.78
2019-05-16T02:49:42.402Z,88.85
2019-05-16T02:52:15.203Z,89.40
2019-05-16T02:54:51.526Z,89.44
2019-05-16T02:57:22.426Z,89.18
2019-05-16T02:59:55.083Z,88.99
2019-05-16T03:02:31.053Z,89.52
2019-05-16T03:05:02.282Z,89.23
2019-05-16T03:07:41.555Z,89.23
2019-05-16T03:10:11.100Z,89.44
2019-05-16T03:12:46.723Z,89.61
2019-05-16T03:15:21.864Z,89.79
2019-05-16T03:18:03.669Z,89.51
2019-05-16T03:20:40.554Z,89.49
2019-05-16T03:23:12.009Z,87.23
2019-05-16T03:25:44.634Z,86.44
2019-05-16T03:28:17.228Z,83.28
2019-05-16T03:30:54.427Z,83.78
2019-05-16T03:33:32.798Z,85.07
2019-05-16T03:36:04.071Z,85.01
2019-05-16T03:38:32.950Z,85.06
2019-05-16T03:41:05.578Z,85.12
2019-05-16T03:43:41.021Z,85.99
2019-05-16T03:46:12.645Z,86.69
2019-05-16T03:48:45.287Z,86.87
2019-05-16T03:51:18.023Z,86.92
2019-05-16T03:53:50.797Z,87.29
2019-05-16T03:56:23.694Z,87.58
2019-05-16T03:58:56.356Z,87.72
2019-05-16T04:01:31.261Z,88.07
2019-05-16T04:04:03.471Z,87.56
2019-05-16T04:06:36.253Z,88.24
2019-05-16T04:09:12.152Z,88.10
2019-05-16T04:11:44.974Z,87.52
2019-05-16T04:14:17.727Z,87.62
2019-05-16T04:16:51.415Z,87.54
2019-05-16T04:19:24.000Z,87.54
2019-05-16T04:21:57.609Z,87.83
2019-05-16T04:24:31.605Z,88.07
2019-05-16T04:27:04.554Z,88.29
2019-05-16T04:29:40.571Z,88.35
2019-05-16T04:32:11.547Z,87.45
2019-05-16T04:34:43.725Z,87.56
2019-05-16T04:37:16.795Z,87.88
2019-05-16T04:39:50.600Z,86.36
2019-05-16T04:42:23.342Z,86.96
2019-05-16T04:44:56.076Z,86.30
2019-05-16T04:47:31.461Z,85.69
2019-05-16T04:50:03.185Z,86.21
2019-05-16T04:52:35.809Z,86.19
2019-05-16T04:55:11.895Z,85.96
2019-05-16T04:57:43.696Z,85.95
2019-05-16T05:00:16.700Z,84.36
2019-05-16T05:02:51.784Z,83.81
2019-05-16T05:05:23.824Z,83.64
2019-05-16T05:07:56.389Z,83.05
2019-05-16T05:10:31.195Z,83.58
2019-05-16T05:13:03.332Z,83.71
2019-05-16T05:15:35.993Z,83.49
2019-05-16T05:18:10.181Z,83.13
2019-05-16T05:20:43.091Z,83.84
2019-05-16T05:23:15.739Z,82.18
2019-05-16T05:25:51.335Z,82.54
2019-05-16T05:28:23.762Z,83.22
2019-05-16T05:30:56.437Z,82.03
2019-05-16T05:33:30.270Z,81.86
2019-05-16T05:36:03.217Z,81.61
2019-05-16T05:38:35.868Z,81.28
2019-05-16T05:41:10.726Z,80.18
2019-05-16T05:43:43.022Z,80.61
2019-05-16T05:46:15.814Z,80.10
2019-05-16T05:48:50.512Z,79.08
2019-05-16T05:51:22.949Z,79.19
2019-05-16T05:53:55.583Z,78.91
2019-05-16T05:56:30.432Z,78.80
2019-05-16T05:59:02.579Z,78.29
2019-05-16T06:01:35.251Z,78.14
2019-05-16T06:04:10.415Z,77.99
2019-05-16T06:06:44.978Z,78.66
2019-05-16T06:09:26.190Z,77.45
2019-05-16T06:11:50.890Z,76.12
2019-05-16T06:14:23.482Z,76.06
2019-05-16T06:16:56.122Z,75.95
2019-05-16T06:19:29.800Z,75.56
2019-05-16T06:22:02.530Z,76.08
2019-05-16T06:24:35.126Z,77.14
2019-05-16T06:27:09.725Z,74.40
2019-05-16T06:29:42.193Z,74.52
2019-05-16T06:32:14.985Z,74.20
2019-05-16T06:34:47.645Z,74.63
2019-05-16T06:37:20.662Z,72.69
2019-05-16T06:39:53.264Z,74.46
2019-05-16T06:42:29.922Z,71.76
2019-05-16T06:45:02.367Z,71.39
2019-05-16T06:47:34.971Z,71.91
2019-05-16T06:50:11.409Z,71.83
2019-05-16T06:52:45.855Z,71.69
2019-05-16T06:55:20.311Z,72.37
2019-05-16T06:57:52.242Z,70.13
2019-05-16T07:00:24.918Z,71.01
2019-05-16T07:02:57.523Z,70.57
2019-05-16T07:05:30.165Z,70.52
2019-05-16T07:08:02.808Z,71.01
2019-05-16T07:10:35.682Z,71.16
2019-05-16T07:13:10.392Z,71.10
2019-05-16T07:15:42.813Z,70.40
2019-05-16T07:18:15.674Z,68.13
2019-05-16T07:20:50.728Z,67.26
2019-05-16T07:23:22.675Z,67.37
2019-05-16T07:25:55.382Z,60.78
2019-05-16T07:28:30.064Z,59.58
2019-05-16T07:31:14.478Z,57.77
2019-05-16T07:33:37.052Z,54.48
2019-05-16T07:36:10.015Z,53.95
2019-05-16T07:38:42.824Z,51.47
2019-05-16T07:41:15.557Z,48.09
2019-05-16T07:43:50.625Z,46.26
2019-05-16T07:46:22.666Z,48.46
2019-05-16T07:48:55.389Z,46.46
2019-05-16T07:51:28.165Z,46.89
2019-05-16T07:54:02.700Z,43.71
2019-05-16T07:56:35.451Z,43.79
2019-05-16T07:59:10.326Z,45.85
2019-05-16T08:01:43.377Z,40.83
2019-05-16T08:04:16.370Z,42.74
2019-05-16T08:06:50.242Z,46.91
2019-05-16T08:09:23.080Z,41.33
2019-05-16T08:11:55.815Z,44.08
2019-05-16T08:14:30.372Z,45.34
2019-05-16T08:17:02.950Z,43.26
2019-05-16T08:19:35.668Z,43.08
2019-05-16T08:22:10.937Z,44.69
2019-05-16T08:24:43.676Z,40.50
2019-05-16T08:27:16.349Z,38.53
2019-05-16T08:29:51.401Z,40.28
2019-05-16T08:32:23.475Z,39.30
2019-05-16T08:34:56.265Z,38.89
2019-05-16T08:37:38.555Z,41.53
2019-05-16T08:40:03.581Z,40.99
2019-05-16T08:42:36.374Z,45.57
2019-05-16T08:45:12.419Z,45.83
2019-05-16T08:47:44.701Z,44.49
2019-05-16T08:50:21.405Z,41.31
2019-05-16T08:52:53.272Z,43.14
2019-05-16T08:55:26.835Z,40.61
2019-05-16T08:58:02.586Z,42.66
2019-05-16T09:00:34.053Z,45.54
2019-05-16T09:03:06.827Z,44.63
2019-05-16T09:05:42.821Z,48.44
2019-05-16T09:08:14.065Z,41.47
2019-05-16T09:10:59.796Z,41.51
2019-05-16T09:13:21.200Z,40.82
2019-05-16T09:15:56.890Z,41.71
2019-05-16T09:18:29.129Z,44.25
2019-05-16T09:21:01.978Z,40.49
2019-05-16T09:23:38.562Z,40.08
2019-05-16T09:26:15.882Z,42.06
2019-05-16T09:28:57.059Z,43.58
2019-05-16T09:31:30.020Z,43.78
2019-05-16T09:34:02.729Z,43.91
2019-05-16T09:36:37.154Z,45.61
2019-05-16T09:39:10.437Z,47.18
2019-05-16T09:41:50.521Z,49.15
2019-05-16T09:44:18.269Z,45.04
2019-05-16T09:46:51.291Z,47.26
2019-05-16T09:49:25.930Z,44.86
2019-05-16T09:51:58.481Z,49.09
2019-05-16T09:54:31.377Z,43.43
2019-05-16T09:57:06.401Z,42.54
2019-05-16T09:59:38.558Z,44.60
2019-05-16T10:02:12.102Z,45.10
2019-05-16T10:04:47.214Z,46.23
2019-05-16T10:07:19.394Z,44.08
2019-05-16T10:09:52.262Z,44.50
2019-05-16T10:12:26.314Z,46.45
2019-05-16T10:14:59.745Z,45.96
2019-05-16T10:17:32.635Z,47.13
2019-05-16T10:20:07.843Z,46.20
2019-05-16T10:22:40.218Z,43.52
2019-05-16T10:25:19.107Z,40.95
2019-05-16T10:27:48.432Z,41.99
2019-05-16T10:30:21.449Z,39.64
2019-05-16T10:32:54.136Z,40.69
2019-05-16T10:35:29.798Z,38.15
2019-05-16T10:38:01.417Z,40.32
2019-05-16T10:40:36.650Z,40.20
2019-05-16T10:43:08.864Z,42.83
2019-05-16T10:45:41.628Z,43.68
2019-05-16T10:48:14.425Z,40.33
2019-05-16T10:50:47.942Z,42.89
2019-05-16T10:53:50.148Z,37.52
2019-05-16T10:55:57.162Z,39.91
2019-05-16T10:58:36.913Z,40.06
2019-05-16T11:01:19.564Z,42.92
2019-05-16T11:03:38.464Z,40.82
2019-05-16T11:06:24.712Z,40.30
2019-05-16T11:08:46.580Z,39.87
2019-05-16T11:11:19.956Z,41.57
2019-05-16T11:13:52.831Z,45.71
2019-05-16T11:16:27.499Z,44.02
2019-05-16T11:19:13.762Z,45.19
2019-05-16T11:21:34.024Z,43.84
2019-05-16T11:24:12.966Z,46.78
2019-05-16T11:26:41.402Z,50.70
2019-05-16T11:29:16.530Z,48.37
2019-05-16T11:31:49.249Z,46.57
2019-05-16T11:34:22.174Z,47.33
2019-05-16T11:36:56.955Z,49.35
2019-05-16T11:39:29.362Z,48.31
2019-05-16T11:42:02.141Z,47.89
2019-05-16T11:44:37.865Z,50.81
2019-05-16T11:47:09.482Z,49.52
2019-05-16T11:49:42.282Z,51.84
2019-05-16T11:52:17.827Z,55.17
2019-05-16T11:54:52.632Z,49.81
2019-05-16T11:57:25.397Z,52.85
2019-05-16T11:59:58.263Z,53.44
2019-05-16T12:02:31.458Z,51.02
2019-05-16T12:05:04.195Z,53.24
2019-05-16T12:07:44.077Z,51.79
2019-05-16T12:10:12.293Z,53.51
2019-05-16T12:12:45.126Z,53.47
2019-05-16T12:15:20.146Z,54.01
2019-05-16T12:18:00.789Z,49.36
2019-05-16T12:20:27.618Z,50.74
2019-05-16T12:23:00.395Z,53.11
2019-05-16T12:25:33.163Z,50.10
2019-05-16T12:28:08.213Z,51.02
2019-05-16T12:30:40.723Z,52.55
2019-05-16T12:33:13.666Z,53.62
2019-05-16T12:35:47.496Z,51.31
2019-05-16T12:38:20.409Z,49.46
2019-05-16T12:40:56.556Z,51.06
2019-05-16T12:43:44.902Z,52.66
2019-05-16T12:46:03.910Z,52.55
2019-05-16T12:48:37.271Z,51.21
2019-05-16T12:51:10.481Z,47.00
2019-05-16T12:53:43.347Z,47.54
2019-05-16T12:56:17.535Z,51.17
2019-05-16T12:58:51.054Z,52.83
2019-05-16T13:01:30.645Z,52.08
2019-05-16T13:03:58.382Z,50.75
2019-05-16T13:06:31.188Z,51.48
2019-05-16T13:09:06.980Z,51.94
2019-05-16T13:11:39.905Z,49.24
2019-05-16T13:14:12.633Z,45.35
2019-05-16T13:16:47.766Z,46.34
2019-05-16T13:19:20.484Z,47.78
2019-05-16T13:21:53.179Z,48.52
2019-05-16T13:24:27.866Z,50.90
2019-05-16T13:27:00.466Z,51.84
2019-05-16T13:29:33.186Z,48.81
2019-05-16T13:32:07.608Z,49.72
2019-05-16T13:34:40.686Z,49.49
2019-05-16T13:37:17.609Z,48.50
2019-05-16T13:39:47.967Z,50.58
2019-05-16T13:42:20.653Z,52.57
2019-05-16T13:44:53.408Z,47.80
2019-05-16T13:47:26.830Z,48.58
2019-05-16T13:49:59.723Z,50.78
2019-05-16T13:52:32.492Z,47.52
2019-05-16T13:55:07.074Z,51.88
2019-05-16T13:57:40.116Z,48.70
2019-05-16T14:00:13.920Z,50.80
2019-05-16T14:02:46.693Z,50.05
2019-05-16T14:05:19.582Z,52.91
2019-05-16T14:07:52.254Z,51.91
2019-05-16T14:10:29.365Z,51.51
2019-05-16T14:12:59.478Z,52.32
2019-05-16T14:15:32.225Z,55.32
2019-05-16T14:18:07.378Z,51.97
2019-05-16T14:20:39.420Z,52.62
2019-05-16T14:23:12.135Z,52.46
2019-05-16T14:25:48.233Z,51.46
2019-05-16T14:28:19.544Z,50.45
2019-05-16T14:30:52.357Z,52.25
2019-05-16T14:33:25.022Z,50.28
2019-05-16T14:35:57.755Z,46.29
2019-05-16T14:38:30.412Z,47.18
2019-05-16T14:41:03.166Z,52.57
2019-05-16T14:43:36.425Z,42.27
2019-05-16T14:46:09.827Z,43.11
2019-05-16T14:48:42.582Z,46.21
2019-05-16T14:51:17.934Z,43.16
2019-05-16T14:53:49.788Z,42.45
2019-05-16T14:56:22.495Z,41.21
2019-05-16T14:58:57.716Z,42.09
2019-05-16T15:01:29.630Z,46.90
2019-05-16T15:04:02.307Z,45.21
2019-05-16T15:06:37.515Z,47.37
2019-05-16T15:09:09.906Z,52.72
2019-05-16T15:11:42.726Z,45.22
2019-05-16T15:14:17.437Z,48.67
2019-05-16T15:16:51.977Z,44.21
2019-05-16T15:19:24.407Z,50.03
2019-05-16T15:21:57.258Z,46.70
2019-05-16T15:24:29.980Z,47.73
2019-05-16T15:27:02.785Z,48.55
2019-05-16T15:29:37.588Z,48.18
2019-05-16T15:32:09.947Z,49.31
2019-05-16T15:34:42.743Z,49.86
2019-05-16T15:37:17.112Z,50.93
2019-05-16T15:39:50.096Z,47.43
2019-05-16T15:42:22.802Z,47.15
2019-05-16T15:44:55.596Z,49.59
2019-05-16T15:47:28.521Z,50.87
2019-05-16T15:50:01.285Z,50.00
2019-05-16T15:52:38.278Z,50.21
2019-05-16T15:55:13.669Z,48.91
2019-05-16T15:57:47.572Z,48.79
2019-05-16T16:00:39.403Z,49.43
2019-05-16T16:03:12.694Z,49.93
2019-05-16T16:05:45.435Z,50.83
2019-05-16T16:08:18.631Z,55.26
2019-05-16T16:10:51.429Z,51.75
2019-05-16T16:13:26.606Z,50.86
2019-05-16T16:15:58.595Z,52.27
2019-05-16T16:18:31.411Z,50.64
2019-05-16T16:21:04.168Z,52.49
2019-05-16T16:23:37.416Z,52.92
2019-05-16T16:26:10.862Z,53.38
2019-05-16T16:28:43.659Z,49.26
2019-05-16T16:31:16.901Z,49.95
2019-05-16T16:33:49.773Z,47.50
2019-05-16T16:36:22.483Z,48.51
2019-05-16T16:38:56.749Z,51.51
2019-05-16T16:41:29.485Z,50.58
2019-05-16T16:44:02.238Z,47.90
2019-05-16T16:46:37.448Z,50.69
2019-05-16T16:49:09.435Z,51.64
2019-05-16T16:51:42.183Z,50.93
2019-05-16T16:54:17.029Z,53.42
2019-05-16T16:56:49.516Z,52.93
2019-05-16T16:59:22.334Z,53.68
2019-05-16T17:01:57.190Z,55.68
2019-05-16T17:04:29.597Z,56.03
2019-05-16T17:07:02.326Z,56.28
2019-05-16T17:09:37.058Z,56.97
2019-05-16T17:12:09.491Z,58.69
2019-05-16T17:14:42.231Z,57.24
2019-05-16T17:17:17.429Z,57.98
2019-05-16T17:19:49.555Z,56.81
2019-05-16T17:22:22.495Z,57.73
2019-05-16T17:24:56.712Z,58.58
2019-05-16T17:27:29.514Z,59.30
2019-05-16T17:30:02.241Z,57.79
2019-05-16T17:32:35.109Z,58.40
2019-05-16T17:35:08.492Z,59.79
2019-05-16T17:37:41.275Z,58.90
2019-05-16T17:40:17.221Z,59.46
2019-05-16T17:42:49.123Z,61.06
2019-05-16T17:45:22.075Z,60.92
2019-05-16T17:47:57.074Z,60.18
2019-05-16T17:50:29.057Z,62.05
2019-05-16T17:53:01.702Z,62.78
2019-05-16T17:55:36.953Z,62.41
2019-05-16T17:58:09.138Z,62.73
2019-05-16T18:00:42.034Z,62.68
2019-05-16T18:03:17.124Z,63.03
2019-05-16T18:05:49.295Z,62.71
2019-05-16T18:08:21.869Z,64.25
2019-05-16T18:10:56.559Z,65.70
2019-05-16T18:13:29.136Z,65.13
2019-05-16T18:16:01.757Z,66.59
2019-05-16T18:18:34.596Z,67.14
2019-05-16T18:21:08.423Z,68.16
2019-05-16T18:23:41.238Z,69.69
2019-05-16T18:26:14.043Z,70.01
2019-05-16T18:28:46.962Z,70.47
2019-05-16T18:31:21.207Z,71.06
2019-05-16T18:33:56.459Z,71.19
2019-05-16T18:36:28.319Z,71.11
2019-05-16T18:39:01.054Z,72.05
2019-05-16T18:41:33.718Z,72.63
2019-05-16T18:44:06.589Z,73.95
2019-05-16T18:46:39.240Z,74.80
2019-05-16T18:49:11.875Z,75.72
2019-05-16T18:51:46.357Z,76.28
2019-05-16T18:54:18.870Z,76.71
2019-05-16T18:56:51.535Z,77.33
2019-05-16T18:59:26.163Z,77.37
2019-05-16T19:01:58.533Z,78.02
2019-05-16T19:04:31.249Z,78.77
2019-05-16T19:07:03.822Z,79.41
2019-05-16T19:09:37.504Z,80.24
2019-05-16T19:12:10.269Z,80.98
2019-05-16T19:14:43.079Z,81.75
2019-05-16T19:17:22.170Z,82.51
2019-05-16T19:19:50.037Z,82.66
2019-05-16T19:22:22.712Z,82.89
2019-05-16T19:24:57.331Z,83.27
2019-05-16T19:27:29.841Z,83.68
2019-05-16T19:30:02.500Z,83.98
2019-05-16T19:32:39.068Z,84.15
2019-05-16T19:35:10.730Z,84.12
2019-05-16T19:37:43.428Z,84.37
2019-05-16T19:40:17.459Z,84.77
2019-05-16T19:42:50.102Z,85.54
2019-05-16T19:45:23.124Z,85.73
2019-05-16T19:47:57.785Z,85.77
2019-05-16T19:50:30.240Z,85.76
2019-05-16T19:53:02.921Z,85.79
2019-05-16T19:55:36.546Z,86.13
2019-05-16T19:58:09.563Z,86.40
2019-05-16T20:00:42.268Z,86.57
2019-05-16T20:03:16.646Z,86.91
2019-05-16T20:05:49.516Z,87.16
2019-05-16T20:08:22.219Z,87.20
2019-05-16T20:10:54.932Z,87.46
2019-05-16T20:13:27.628Z,87.35
2019-05-16T20:16:00.317Z,87.57
2019-05-16T20:18:32.997Z,87.90
2019-05-16T20:21:05.719Z,88.03
2019-05-16T20:23:38.386Z,88.25
2019-05-16T20:26:11.052Z,88.68
2019-05-16T20:28:43.781Z,88.88
2019-05-16T20:31:17.124Z,89.22
2019-05-16T20:33:49.915Z,89.39
2019-05-16T20:36:22.671Z,89.55
2019-05-16T20:38:55.367Z,89.71
2019-05-16T20:41:27.429Z,89.79
2019-05-16T20:44:00.019Z,90.07
2019-05-16T20:46:32.724Z,90.42
2019-05-16T20:49:09.714Z,90.61
2019-05-16T20:51:43.630Z,90.66
2019-05-16T20:54:17.497Z,90.81
2019-05-16T20:56:51.524Z,90.69
2019-05-16T20:59:26.540Z,90.46
2019-05-16T21:01:58.681Z,90.61
2019-05-16T21:04:31.470Z,90.81
2019-05-16T21:07:08.154Z,90.82
2019-05-16T21:09:38.713Z,91.06
2019-05-16T21:12:11.486Z,91.26
2019-05-16T21:14:47.622Z,91.47
2019-05-16T21:17:20.345Z,91.51
2019-05-16T21:19:53.058Z,91.28
2019-05-16T21:22:27.436Z,91.23
2019-05-16T21:25:02.580Z,91.52
2019-05-16T21:27:37.615Z,91.41
2019-05-16T21:30:12.926Z,91.48
2019-05-16T21:32:47.125Z,91.57
2019-05-16T21:35:20.021Z,91.70
2019-05-16T21:37:52.686Z,91.81
2019-05-16T21:40:26.567Z,91.97
2019-05-16T21:42:59.298Z,92.13
2019-05-16T21:45:31.951Z,92.17
2019-05-16T21:48:07.258Z,92.30
2019-05-16T21:50:39.283Z,92.36
2019-05-16T21:53:11.876Z,92.43
2019-05-16T21:55:47.058Z,92.57
2019-05-16T21:58:18.791Z,92.66
2019-05-16T22:00:56.883Z,92.76
2019-05-16T22:03:29.489Z,92.65
2019-05-16T22:06:02.153Z,92.66
2019-05-16T22:08:36.349Z,92.63
2019-05-16T22:11:09.095Z,92.61
2019-05-16T22:13:41.672Z,92.71
2019-05-16T22:16:14.421Z,92.75
2019-05-16T22:18:47.615Z,92.74
2019-05-16T22:21:20.403Z,92.62
2019-05-16T22:23:53.126Z,92.53
2019-05-16T22:26:27.035Z,92.61
2019-05-16T22:28:59.793Z,92.91
2019-05-16T22:31:34.041Z,92.94
2019-05-16T22:34:07.551Z,92.92
2019-05-16T22:36:40.403Z,93.04
2019-05-16T22:39:12.981Z,93.04
2019-05-16T22:41:46.655Z,93.12
2019-05-16T22:44:19.304Z,93.24
2019-05-16T22:46:52.903Z,92.97
2019-05-16T22:49:27.506Z,93.01
2019-05-16T22:51:59.921Z,93.26
2019-05-16T22:54:32.561Z,93.21
2019-05-16T22:57:06.699Z,93.21
2019-05-16T22:59:39.481Z,93.19
2019-05-16T23:02:12.644Z,93.08
2019-05-16T23:04:47.328Z,93.05
2019-05-16T23:07:18.913Z,93.19
2019-05-16T23:09:51.955Z,93.33
2019-05-16T23:12:26.496Z,93.49
2019-05-16T23:14:58.872Z,93.56
2019-05-16T23:17:31.471Z,93.66
2019-05-16T23:20:06.162Z,93.78
2019-05-16T23:22:38.478Z,93.84
2019-05-16T23:25:11.738Z,93.81
2019-05-16T23:27:44.528Z,93.70
2019-05-16T23:30:18.999Z,93.62
2019-05-16T23:32:51.669Z,93.63
2019-05-16T23:35:26.694Z,93.63
2019-05-16T23:37:58.948Z,93.68
2019-05-16T23:40:31.561Z,93.74
2019-05-16T23:43:04.199Z,93.82
2019-05-16T23:45:37.554Z,93.94
2019-05-16T23:48:11.363Z,94.02
2019-05-16T23:50:44.111Z,94.07
2019-05-16T23:53:16.896Z,94.00
2019-05-16T23:55:49.710Z,94.04
2019-05-16T23:58:22.350Z,94.08
